Time;durP1;ratioP1;P1;durP2;ratioP2;P2;SDS_P1;SDS_P2;PMS_P1;PMS_P2;Temp;Humidity;BMP_temperature;BMP_pressure;BME280_temperature;BME280_humidity;BME280_pressure;Samples;Min_cycle;Max_cycle;Signal;HPM_P1;HPM_P2
2024/04/13 00:01:52;;;;;;;12.90;8.40;;;;;;;8.18;73.00;98180.63;104616;1261;99282;-81
2024/04/13 00:04:18;;;;;;;12.50;7.80;;;;;;;8.19;73.15;98180.35;104626;1262;99475;-81
2024/04/13 00:06:44;;;;;;;12.70;8.60;;;;;;;8.23;73.20;98182.07;104911;1262;104928;-81
2024/04/13 00:09:11;;;;;;;12.00;8.20;;;;;;;8.26;73.28;98183.86;104936;1273;99296;-81
2024/04/13 00:11:37;;;;;;;14.30;8.70;;;;;;;8.24;73.38;98181.59;104875;1275;99420;-81
2024/04/13 00:14:04;;;;;;;9.90;8.10;;;;;;;8.25;73.43;98182.48;104871;1257;100258;-81
2024/04/13 00:16:30;;;;;;;14.00;8.10;;;;;;;8.23;73.43;98180.62;104698;1261;105198;-85
2024/04/13 00:18:57;;;;;;;13.70;8.20;;;;;;;8.21;73.49;98180.88;104586;1260;99295;-85
2024/04/13 00:21:23;;;;;;;12.60;8.50;;;;;;;8.17;73.50;98177.50;104611;1261;99244;-81
2024/04/13 00:23:49;;;;;;;14.20;8.90;;;;;;;8.15;73.57;98183.20;104611;1262;100590;-81
2024/04/13 00:26:17;;;;;;;15.90;8.70;;;;;;;8.14;73.61;98183.47;104547;1261;104860;-80
2024/04/13 00:28:43;;;;;;;12.50;8.80;;;;;;;8.14;73.89;98184.55;104550;1258;100687;-81
2024/04/13 00:31:11;;;;;;;13.40;10.00;;;;;;;8.13;73.97;98181.39;104579;1272;99263;-80
2024/04/13 00:33:38;;;;;;;15.10;9.70;;;;;;;8.12;74.14;98178.80;104625;1280;99279;-80
2024/04/13 00:36:05;;;;;;;13.50;9.10;;;;;;;8.13;74.25;98179.51;104564;1261;99267;-80
2024/04/13 00:38:32;;;;;;;13.70;9.00;;;;;;;8.14;74.40;98175.81;104560;1262;99795;-81
2024/04/13 00:40:58;;;;;;;14.70;9.90;;;;;;;8.15;74.33;98176.30;104590;1273;99270;-84
2024/04/13 00:43:24;;;;;;;16.40;10.90;;;;;;;8.17;74.28;98174.02;104546;1262;99344;-84
2024/04/13 00:45:55;;;;;;;13.60;9.50;;;;;;;8.18;74.43;98178.31;104561;1261;99282;-81
2024/04/13 00:48:24;;;;;;;16.80;10.70;;;;;;;8.19;74.39;98177.20;104542;1262;103895;-81
2024/04/13 00:50:59;;;;;;;15.70;9.70;;;;;;;8.20;74.56;98175.42;104593;1274;100468;-80
2024/04/13 00:53:29;;;;;;;15.60;9.90;;;;;;;8.21;74.62;98177.81;104534;1262;99269;-80
2024/04/13 00:56:00;;;;;;;14.60;9.60;;;;;;;8.20;74.57;98178.67;104634;1262;99200;-80
2024/04/13 00:58:28;;;;;;;15.80;9.60;;;;;;;8.19;74.67;98181.95;104542;1262;99844;-81
2024/04/13 01:00:56;;;;;;;14.20;9.10;;;;;;;8.17;74.77;98180.77;104592;1262;105116;-85
2024/04/13 01:03:24;;;;;;;15.10;10.00;;;;;;;8.17;74.90;98180.30;104609;1262;99977;-84
2024/04/13 01:05:51;;;;;;;16.30;8.80;;;;;;;8.13;74.87;98175.58;104571;1262;100585;-84
2024/04/13 01:08:20;;;;;;;13.80;8.70;;;;;;;8.13;74.98;98178.39;104576;1258;100492;-85
2024/04/13 01:10:47;;;;;;;11.30;8.40;;;;;;;8.13;75.00;98175.37;104575;1262;99842;-85
2024/04/13 01:13:14;;;;;;;12.70;8.90;;;;;;;8.13;75.05;98176.38;104692;1257;99280;-85
2024/04/13 01:15:40;;;;;;;13.00;8.10;;;;;;;8.11;74.98;98177.86;104592;1275;99544;-81
2024/04/13 01:18:10;;;;;;;11.80;8.10;;;;;;;8.09;75.03;98178.23;104555;1276;99970;-81
2024/04/13 01:20:38;;;;;;;12.70;8.60;;;;;;;8.08;75.04;98169.33;104623;1260;99354;-81
2024/04/13 01:23:11;;;;;;;14.20;8.80;;;;;;;8.06;75.09;98168.49;104619;1262;99679;-81
2024/04/13 01:25:40;;;;;;;10.60;8.10;;;;;;;8.06;75.11;98167.35;104495;1259;104016;-81
2024/04/13 01:28:12;;;;;;;11.30;7.90;;;;;;;8.06;75.07;98172.58;104447;1261;165657;-80
2024/04/13 01:30:40;;;;;;;13.20;7.70;;;;;;;8.05;74.91;98171.30;104610;1257;100346;-85
2024/04/13 01:33:07;;;;;;;10.80;7.50;;;;;;;8.00;74.87;98171.61;104542;1264;99344;-85
2024/04/13 01:35:34;;;;;;;10.50;7.80;;;;;;;7.94;74.85;98171.05;104627;1262;99771;-85
2024/04/13 01:38:00;;;;;;;11.70;7.60;;;;;;;7.89;74.83;98165.89;104629;1262;99243;-84
2024/04/13 01:40:27;;;;;;;13.50;7.20;;;;;;;7.85;74.82;98170.34;104546;1260;99268;-85
2024/04/13 01:42:53;;;;;;;9.60;7.20;;;;;;;7.84;75.01;98171.71;104618;1261;100597;-85
2024/04/13 01:45:20;;;;;;;11.70;7.20;;;;;;;7.84;74.89;98166.94;104601;1259;99807;-85
2024/04/13 01:47:46;;;;;;;10.70;6.80;;;;;;;7.81;74.87;98166.48;104663;1260;100606;-84
2024/04/13 01:50:13;;;;;;;9.40;7.10;;;;;;;7.75;74.82;98165.36;104525;1262;99347;-85
2024/04/13 01:52:39;;;;;;;10.40;7.60;;;;;;;7.69;74.92;98164.09;104607;1262;99284;-84
2024/04/13 01:55:06;;;;;;;8.80;6.70;;;;;;;7.65;75.07;98162.78;104579;1262;99760;-85
2024/04/13 01:57:32;;;;;;;7.90;6.70;;;;;;;7.64;75.14;98161.48;104563;1264;99703;-84
2024/04/13 01:59:59;;;;;;;10.60;6.50;;;;;;;7.60;75.21;98157.06;104594;1262;99254;-84
2024/04/13 02:02:25;;;;;;;8.30;6.60;;;;;;;7.56;75.17;98164.20;104639;1261;99242;-84
2024/04/13 02:04:52;;;;;;;8.80;6.70;;;;;;;7.48;75.09;98166.83;104619;1263;99804;-84
2024/04/13 02:07:19;;;;;;;9.90;6.30;;;;;;;7.44;75.33;98161.23;104496;1265;99360;-84
2024/04/13 02:09:45;;;;;;;8.50;6.80;;;;;;;7.44;75.44;98154.65;104588;1261;99284;-84
2024/04/13 02:12:11;;;;;;;10.50;7.00;;;;;;;7.45;75.56;98155.95;104746;1257;99963;-85
2024/04/13 02:14:38;;;;;;;11.00;7.20;;;;;;;7.43;75.53;98153.13;104556;1262;102105;-85
2024/04/13 02:17:05;;;;;;;8.90;7.40;;;;;;;7.40;75.65;98154.31;104576;1262;99255;-85
2024/04/13 02:19:31;;;;;;;10.60;6.60;;;;;;;7.39;75.76;98154.24;104586;1260;99270;-84
2024/04/13 02:21:57;;;;;;;9.20;7.00;;;;;;;7.38;75.80;98150.13;104606;1262;99377;-85
2024/04/13 02:24:25;;;;;;;10.40;6.40;;;;;;;7.37;75.82;98149.62;104565;1261;99688;-85
2024/04/13 02:26:51;;;;;;;11.30;7.50;;;;;;;7.36;75.95;98150.05;104571;1261;99234;-85
2024/04/13 02:29:17;;;;;;;9.20;7.20;;;;;;;7.35;76.09;98150.27;104537;1262;99252;-85
2024/04/13 02:31:44;;;;;;;11.50;7.10;;;;;;;7.35;76.10;98145.48;104622;1261;99247;-81
2024/04/13 02:34:10;;;;;;;11.40;7.10;;;;;;;7.33;76.15;98144.08;104674;1269;99203;-81
2024/04/13 02:36:38;;;;;;;11.30;7.20;;;;;;;7.32;76.21;98147.37;104520;1262;105199;-81
2024/04/13 02:39:07;;;;;;;8.50;6.60;;;;;;;7.32;76.19;98150.22;104530;1262;101364;-81
2024/04/13 02:41:34;;;;;;;12.50;7.20;;;;;;;7.31;76.21;98148.77;104579;1280;99246;-81
2024/04/13 02:44:00;;;;;;;10.30;6.70;;;;;;;7.29;76.26;98153.08;104542;1262;100555;-81
2024/04/13 02:46:27;;;;;;;7.70;6.40;;;;;;;7.27;76.20;98153.65;104522;1262;99795;-81
2024/04/13 02:48:53;;;;;;;9.70;7.00;;;;;;;7.25;76.19;98156.97;104628;1262;99360;-81
2024/04/13 02:51:19;;;;;;;8.70;6.80;;;;;;;7.21;76.11;98155.39;104531;1262;100482;-81
2024/04/13 02:53:46;;;;;;;9.00;6.80;;;;;;;7.20;76.13;98159.11;104628;1274;99280;-81
2024/04/13 02:56:13;;;;;;;7.70;6.60;;;;;;;7.15;76.14;98154.55;104606;1262;99264;-77
2024/04/13 02:58:39;;;;;;;7.90;6.30;;;;;;;7.12;76.14;98154.27;104722;1273;99676;-77
2024/04/13 03:01:06;;;;;;;8.20;6.00;;;;;;;7.09;76.19;98149.95;104514;1261;100611;-77
2024/04/13 03:03:33;;;;;;;9.70;7.00;;;;;;;7.06;76.21;98146.62;104536;1275;99270;-77
2024/04/13 03:06:02;;;;;;;9.30;6.50;;;;;;;7.04;76.27;98146.25;104575;1262;99383;-77
2024/04/13 03:08:28;;;;;;;11.60;6.80;;;;;;;7.01;76.40;98144.45;104585;1259;104452;-78
2024/04/13 03:11:00;;;;;;;7.50;6.40;;;;;;;6.97;76.34;98144.56;104589;1269;99782;-77
2024/04/13 03:13:27;;;;;;;10.40;7.20;;;;;;;6.95;76.39;98144.06;104601;1261;100059;-77
2024/04/13 03:16:03;;;;;;;12.50;6.50;;;;;;;6.95;76.50;98147.52;104574;1280;99288;-77
2024/04/13 03:18:32;;;;;;;9.50;6.30;;;;;;;6.94;76.56;98151.52;104577;1259;100623;-77
2024/04/13 03:20:59;;;;;;;6.00;5.30;;;;;;;6.94;76.54;98156.04;104594;1261;104980;-77
2024/04/13 03:23:30;;;;;;;9.00;6.40;;;;;;;6.93;76.47;98161.84;104553;1261;99286;-77
2024/04/13 03:25:57;;;;;;;10.20;8.10;;;;;;;6.91;76.46;98167.23;104536;1262;100187;-78
2024/04/13 03:28:29;;;;;;;9.10;6.20;;;;;;;6.87;76.47;98167.63;104586;1260;99396;-77
2024/04/13 03:30:56;;;;;;;7.60;6.00;;;;;;;6.84;76.66;98170.52;104624;1262;99251;-80
2024/04/13 03:33:23;;;;;;;9.80;6.30;;;;;;;6.82;76.78;98171.63;104584;1262;99285;-80
2024/04/13 03:35:49;;;;;;;9.60;6.20;;;;;;;6.79;76.83;98170.64;104603;1262;99812;-80
2024/04/13 03:38:16;;;;;;;8.80;5.80;;;;;;;6.80;76.86;98171.11;104574;1263;99387;-80
2024/04/13 03:40:44;;;;;;;8.50;6.70;;;;;;;6.80;76.85;98170.08;104641;1260;99265;-80
2024/04/13 03:43:11;;;;;;;7.80;5.90;;;;;;;6.79;76.90;98171.95;104549;1259;103972;-81
2024/04/13 03:45:37;;;;;;;9.70;6.30;;;;;;;6.72;76.90;98171.06;104592;1259;99344;-84
2024/04/13 03:48:04;;;;;;;7.80;6.00;;;;;;;6.67;77.01;98171.83;104490;1275;99345;-84
2024/04/13 03:50:31;;;;;;;10.60;6.90;;;;;;;6.64;76.94;98172.38;104687;1280;99466;-84
2024/04/13 03:52:57;;;;;;;9.40;7.00;;;;;;;6.62;77.12;98170.48;104586;1262;104411;-84
2024/04/13 03:55:23;;;;;;;14.30;7.40;;;;;;;6.61;77.17;98172.04;104581;1262;99191;-85
2024/04/13 03:57:50;;;;;;;11.70;8.20;;;;;;;6.59;77.21;98166.47;104554;1258;100585;-85
2024/04/13 04:00:16;;;;;;;12.60;8.60;;;;;;;6.59;77.36;98173.81;104601;1273;99251;-84
2024/04/13 04:02:43;;;;;;;11.60;8.40;;;;;;;6.59;77.42;98175.26;104568;1273;111401;-84
2024/04/13 04:05:09;;;;;;;11.40;8.50;;;;;;;6.60;77.59;98173.17;104569;1262;99279;-84
2024/04/13 04:07:38;;;;;;;13.00;8.10;;;;;;;6.64;77.86;98180.98;104585;1259;99634;-82
2024/04/13 04:10:05;;;;;;;10.10;8.20;;;;;;;6.70;77.90;98179.34;104583;1271;99897;-81
2024/04/13 04:12:32;;;;;;;10.80;7.20;;;;;;;6.75;77.99;98176.70;104618;1260;99270;-83
2024/04/13 04:14:58;;;;;;;12.40;7.70;;;;;;;6.76;77.85;98175.45;104590;1274;99278;-84
2024/04/13 04:17:24;;;;;;;13.00;8.10;;;;;;;6.78;77.77;98180.23;104766;1260;99373;-84
2024/04/13 04:19:51;;;;;;;11.10;6.90;;;;;;;6.80;77.83;98177.23;104592;1260;99289;-84
2024/04/13 04:22:17;;;;;;;12.40;7.50;;;;;;;6.82;77.80;98181.55;104726;1258;99191;-84
2024/04/13 04:24:44;;;;;;;8.90;6.80;;;;;;;6.85;77.89;98178.36;104707;1262;99293;-84
2024/04/13 04:27:10;;;;;;;9.50;6.80;;;;;;;6.87;78.05;98173.64;104721;1259;99383;-85
2024/04/13 04:29:37;;;;;;;11.60;7.40;;;;;;;6.86;78.07;98172.64;104588;1262;99358;-84
2024/04/13 04:32:04;;;;;;;10.50;7.30;;;;;;;6.88;78.09;98176.15;104628;1262;99339;-77
2024/04/13 04:34:31;;;;;;;14.00;7.50;;;;;;;6.87;77.98;98178.58;104616;1263;100669;-80
2024/04/13 04:36:57;;;;;;;12.60;7.70;;;;;;;6.87;78.09;98179.69;104616;1262;99701;-81
2024/04/13 04:39:24;;;;;;;18.30;9.90;;;;;;;6.88;78.05;98175.94;104654;1280;99245;-81
2024/04/13 04:41:51;;;;;;;15.00;9.70;;;;;;;6.89;78.13;98175.70;104602;1271;100736;-81
2024/04/13 04:44:17;;;;;;;15.00;10.30;;;;;;;6.90;78.10;98176.10;104560;1263;99373;-81
2024/04/13 04:46:43;;;;;;;14.70;9.70;;;;;;;6.92;78.08;98179.73;104599;1260;99253;-80
2024/04/13 04:49:10;;;;;;;10.20;7.40;;;;;;;6.93;78.16;98187.11;104613;1259;100014;-80
2024/04/13 04:51:36;;;;;;;11.40;7.60;;;;;;;6.95;78.28;98191.38;104661;1258;99757;-80
2024/04/13 04:54:03;;;;;;;11.30;7.90;;;;;;;6.97;78.48;98188.23;104581;1262;99265;-81
2024/04/13 04:56:32;;;;;;;13.90;9.70;;;;;;;6.99;78.65;98187.41;104603;1262;99379;-81
2024/04/13 04:58:58;;;;;;;13.60;10.80;;;;;;;7.04;78.93;98185.45;104529;1264;99377;-81
2024/04/13 05:01:24;;;;;;;17.10;11.40;;;;;;;7.09;79.08;98185.28;104588;1259;99273;-79
2024/04/13 05:03:51;;;;;;;15.50;10.10;;;;;;;7.16;79.22;98185.70;104643;1262;100492;-79
2024/04/13 05:06:18;;;;;;;15.00;9.60;;;;;;;7.24;79.29;98187.83;104563;1262;101580;-79
2024/04/13 05:08:45;;;;;;;15.50;9.80;;;;;;;7.33;79.29;98193.83;104539;1265;100614;-79
2024/04/13 05:11:12;;;;;;;14.30;9.60;;;;;;;7.41;79.31;98197.59;104631;1260;99257;-84
2024/04/13 05:13:40;;;;;;;13.20;9.30;;;;;;;7.48;79.36;98196.39;104613;1278;99296;-84
2024/04/13 05:16:08;;;;;;;18.20;12.90;;;;;;;7.56;79.42;98194.83;104728;1256;99317;-84
2024/04/13 05:18:37;;;;;;;19.90;14.10;;;;;;;7.62;79.55;98197.19;104673;1262;99332;-84
2024/04/13 05:21:04;;;;;;;19.00;14.70;;;;;;;7.68;79.59;98195.59;104550;1260;100007;-84
2024/04/13 05:23:31;;;;;;;30.40;16.10;;;;;;;7.74;79.74;98192.58;104591;1262;99598;-84
2024/04/13 05:25:57;;;;;;;22.50;15.40;;;;;;;7.81;79.79;98194.67;104578;1276;99181;-85
2024/04/13 05:28:26;;;;;;;22.60;14.20;;;;;;;7.87;79.71;98198.40;104596;1262;100604;-84
2024/04/13 05:30:56;;;;;;;28.10;16.10;;;;;;;7.94;79.74;98199.11;104568;1260;99329;-81
2024/04/13 05:33:24;;;;;;;26.30;14.50;;;;;;;8.00;79.71;98200.89;104623;1280;100521;-81
2024/04/13 05:35:51;;;;;;;26.50;13.20;;;;;;;8.05;79.82;98201.73;104569;1269;100684;-80
2024/04/13 05:38:18;;;;;;;22.40;11.80;;;;;;;8.10;79.75;98202.71;104576;1259;99193;-81
2024/04/13 05:40:44;;;;;;;21.40;12.90;;;;;;;8.16;79.66;98203.48;104590;1262;99306;-81
2024/04/13 05:43:10;;;;;;;21.50;11.70;;;;;;;8.22;79.73;98200.48;104628;1262;99310;-81
2024/04/13 05:45:37;;;;;;;21.20;12.70;;;;;;;8.28;79.83;98199.02;104589;1258;99182;-80
2024/04/13 05:48:04;;;;;;;24.00;12.20;;;;;;;8.35;79.78;98194.83;104571;1261;99637;-81
2024/04/13 05:50:31;;;;;;;19.30;12.00;;;;;;;8.44;79.83;98196.52;104566;1260;99273;-81
2024/04/13 05:52:57;;;;;;;20.10;10.70;;;;;;;8.53;80.06;98196.33;104545;1269;99366;-81
2024/04/13 05:55:23;;;;;;;21.10;9.80;;;;;;;8.62;80.01;98193.88;104604;1262;99246;-81
2024/04/13 05:57:50;;;;;;;17.50;10.10;;;;;;;8.71;80.08;98186.46;104638;1262;101064;-81
2024/04/13 06:00:16;;;;;;;14.30;9.60;;;;;;;8.83;80.36;98180.82;104634;1264;99317;-81
2024/04/13 06:02:43;;;;;;;16.40;9.80;;;;;;;8.95;80.42;98175.59;104597;1275;99304;-81
2024/04/13 06:05:09;;;;;;;17.80;10.60;;;;;;;9.09;80.41;98174.79;104634;1262;107187;-81
2024/04/13 06:07:35;;;;;;;23.40;9.90;;;;;;;9.23;80.39;98172.32;104598;1262;99336;-83
2024/04/13 06:10:04;;;;;;;17.20;9.40;;;;;;;9.39;80.30;98177.64;104625;1262;99330;-83
2024/04/13 06:12:31;;;;;;;20.00;10.20;;;;;;;9.52;80.20;98166.48;104788;1262;101349;-85
2024/04/13 06:14:58;;;;;;;21.20;9.50;;;;;;;9.67;80.19;98164.45;104685;1262;99811;-85
2024/04/13 06:17:24;;;;;;;22.80;9.90;;;;;;;9.83;80.28;98165.56;104572;1263;100603;-81
2024/04/13 06:19:51;;;;;;;19.80;9.80;;;;;;;9.97;80.24;98166.95;104622;1271;99296;-81
2024/04/13 06:22:20;;;;;;;17.80;9.20;;;;;;;10.10;79.96;98170.27;104545;1275;100441;-81
2024/04/13 06:24:46;;;;;;;13.30;8.60;;;;;;;10.24;79.95;98169.82;104584;1262;100578;-80
2024/04/13 06:27:13;;;;;;;20.00;10.00;;;;;;;10.36;79.83;98160.86;104560;1271;99306;-85
2024/04/13 06:29:39;;;;;;;15.10;8.50;;;;;;;10.48;79.86;98155.30;104558;1262;100878;-84
2024/04/13 06:32:07;;;;;;;12.70;8.50;;;;;;;10.62;79.87;98152.61;104612;1260;100502;-78
2024/04/13 06:34:33;;;;;;;11.60;8.00;;;;;;;10.75;79.70;98159.11;104525;1271;100696;-78
2024/04/13 06:36:59;;;;;;;15.50;7.90;;;;;;;10.90;79.70;98157.91;104561;1262;99338;-78
2024/04/13 06:39:26;;;;;;;17.00;7.60;;;;;;;11.06;79.42;98155.55;104557;1259;99255;-78
2024/04/13 06:41:52;;;;;;;11.40;7.60;;;;;;;11.22;79.06;98155.67;104626;1280;100581;-78
2024/04/13 06:44:18;;;;;;;10.10;7.70;;;;;;;11.40;79.08;98160.33;104519;1263;100059;-78
2024/04/13 06:46:45;;;;;;;12.10;7.30;;;;;;;11.58;79.02;98158.27;104577;1271;99270;-79
2024/04/13 06:49:11;;;;;;;12.70;7.20;;;;;;;11.75;78.42;98153.14;104514;1276;99359;-78
2024/04/13 06:51:38;;;;;;;8.70;6.80;;;;;;;11.91;77.96;98151.73;104609;1259;99172;-76
2024/04/13 06:54:05;;;;;;;13.90;7.20;;;;;;;12.06;77.91;98147.66;104567;1273;100466;-76
2024/04/13 06:56:31;;;;;;;9.90;7.80;;;;;;;12.23;77.95;98147.10;104661;1262;100040;-76
2024/04/13 06:58:58;;;;;;;12.70;7.20;;;;;;;12.42;77.91;98143.82;104696;1262;99343;-76
2024/04/13 07:01:24;;;;;;;12.70;6.50;;;;;;;12.59;77.47;98141.26;104775;1262;100663;-76
2024/04/13 07:03:50;;;;;;;8.70;6.10;;;;;;;12.74;76.81;98134.70;104733;1262;99991;-76
2024/04/13 07:06:21;;;;;;;9.20;6.10;;;;;;;12.90;76.46;98131.37;104658;1262;99266;-84
2024/04/13 07:08:48;;;;;;;13.40;7.10;;;;;;;13.07;76.17;98125.77;104695;1261;99680;-84
2024/04/13 07:11:15;;;;;;;12.90;6.40;;;;;;;13.27;75.79;98120.73;104615;1273;104907;-84
2024/04/13 07:13:42;;;;;;;11.20;6.20;;;;;;;13.48;75.73;98125.95;104645;1263;99247;-84
2024/04/13 07:16:09;;;;;;;8.90;5.90;;;;;;;13.68;75.21;98124.19;104568;1262;99263;-84
2024/04/13 07:18:36;;;;;;;10.70;5.20;;;;;;;13.85;74.40;98120.16;104520;1272;100465;-84
2024/04/13 07:21:02;;;;;;;10.70;4.90;;;;;;;14.07;74.00;98118.73;104616;1260;99340;-84
2024/04/13 07:23:29;;;;;;;10.90;5.60;;;;;;;14.27;73.65;98122.96;104550;1280;100270;-84
2024/04/13 07:26:02;;;;;;;9.10;5.80;;;;;;;14.44;72.88;98118.33;104571;1273;99373;-84
2024/04/13 07:28:32;;;;;;;7.90;5.30;;;;;;;14.64;72.25;98110.98;104532;1260;99370;-85
2024/04/13 07:30:59;;;;;;;14.90;5.90;;;;;;;14.84;71.85;98104.42;104591;1262;99689;-85
2024/04/13 07:33:26;;;;;;;8.40;4.50;;;;;;;15.01;71.32;98106.79;104541;1262;100499;-84
2024/04/13 07:35:53;;;;;;;6.90;3.50;;;;;;;15.22;70.45;98105.98;104623;1262;99309;-84
2024/04/13 07:38:19;;;;;;;7.50;3.60;;;;;;;15.50;69.14;98102.57;104571;1263;99705;-85
2024/04/13 07:40:46;;;;;;;11.10;3.90;;;;;;;15.88;68.83;98099.63;104618;1260;99302;-85
2024/04/13 07:43:13;;;;;;;10.10;3.70;;;;;;;16.31;68.00;98100.73;104612;1270;104955;-84
2024/04/13 07:45:44;;;;;;;6.80;3.10;;;;;;;16.70;67.16;98097.98;104624;1262;99266;-84
2024/04/13 07:48:11;;;;;;;4.60;3.40;;;;;;;17.08;65.50;98089.33;104725;1273;99881;-84
2024/04/13 07:50:38;;;;;;;7.30;2.80;;;;;;;17.48;65.48;98091.54;104681;1262;99301;-85
2024/04/13 07:53:04;;;;;;;5.90;3.60;;;;;;;17.93;64.78;98091.15;104611;1274;99350;-84
2024/04/13 07:55:30;;;;;;;11.00;3.60;;;;;;;18.37;63.95;98087.87;104604;1259;99721;-85
2024/04/13 07:57:57;;;;;;;4.30;2.60;;;;;;;18.84;63.32;98084.59;104455;1265;99361;-85
2024/04/13 08:00:24;;;;;;;6.00;3.00;;;;;;;19.26;61.46;98086.70;104628;1262;99363;-86
2024/04/13 08:02:50;;;;;;;7.60;2.70;;;;;;;19.30;59.51;98081.98;104814;1274;99279;-84
2024/04/13 08:05:17;;;;;;;5.50;2.80;;;;;;;19.24;59.96;98082.12;104786;1262;99283;-84
2024/04/13 08:07:43;;;;;;;8.50;2.10;;;;;;;19.42;59.83;98084.70;104737;1263;99301;-84
2024/04/13 08:10:09;;;;;;;6.10;2.70;;;;;;;19.59;59.38;98081.46;104659;1262;100488;-84
2024/04/13 08:12:36;;;;;;;5.70;2.50;;;;;;;19.55;58.70;98075.98;104767;1259;99430;-85
2024/04/13 08:15:03;;;;;;;7.60;2.90;;;;;;;19.48;58.33;98073.34;104689;1258;99340;-84
2024/04/13 08:17:29;;;;;;;3.80;2.30;;;;;;;19.56;58.16;98074.25;104764;1280;99281;-84
2024/04/13 08:19:56;;;;;;;5.70;2.90;;;;;;;19.49;57.86;98073.48;104683;1271;99253;-84
2024/04/13 08:22:22;;;;;;;5.90;2.50;;;;;;;19.44;57.66;98065.56;104664;1263;99269;-77
2024/04/13 08:24:51;;;;;;;5.40;2.80;;;;;;;19.38;57.48;98064.54;104688;1264;99738;-77
2024/04/13 08:27:17;;;;;;;5.50;2.70;;;;;;;19.56;57.68;98062.41;104638;1275;99547;-76
2024/04/13 08:29:48;;;;;;;5.00;2.70;;;;;;;19.80;57.22;98066.02;104698;1271;100581;-77
2024/04/13 08:32:15;;;;;;;9.00;2.70;;;;;;;19.82;57.03;98064.23;104713;1264;99338;-86
2024/04/13 08:34:41;;;;;;;6.90;2.90;;;;;;;19.82;56.71;98061.33;104569;1271;100604;-84
2024/04/13 08:37:08;;;;;;;9.50;3.40;;;;;;;19.80;55.19;98061.15;104583;1273;99787;-84
2024/04/13 08:39:35;;;;;;;7.90;3.10;;;;;;;19.71;54.43;98058.29;104626;1262;99792;-86
2024/04/13 08:42:05;;;;;;;9.50;3.40;;;;;;;20.06;54.94;98064.27;104565;1262;99332;-76
2024/04/13 08:44:33;;;;;;;6.60;2.70;;;;;;;20.43;53.48;98071.83;104645;1261;99619;-77
2024/04/13 08:47:00;;;;;;;5.00;2.50;;;;;;;20.73;53.09;98059.89;104852;1262;99213;-76
2024/04/13 08:49:31;;;;;;;9.70;3.10;;;;;;;21.06;52.34;98054.23;104863;1272;99306;-76
2024/04/13 08:51:59;;;;;;;8.10;3.90;;;;;;;21.45;52.93;98055.84;104900;1271;99926;-77
2024/04/13 08:54:29;;;;;;;5.60;3.30;;;;;;;21.65;52.71;98054.82;104877;1264;99276;-77
2024/04/13 08:56:57;;;;;;;6.50;4.00;;;;;;;21.98;52.33;98053.01;104939;1262;99706;-77
2024/04/13 08:59:26;;;;;;;4.40;2.80;;;;;;;22.39;51.72;98056.94;104860;1271;99259;-76
2024/04/13 09:01:56;;;;;;;4.90;2.30;;;;;;;22.77;50.91;98051.14;104718;1261;102004;-84
2024/04/13 09:04:23;;;;;;;4.90;2.90;;;;;;;23.04;50.36;98050.75;104674;1261;99920;-85
2024/04/13 09:06:50;;;;;;;6.70;2.50;;;;;;;23.16;50.24;98057.65;104687;1262;99610;-84
2024/04/13 09:09:17;;;;;;;4.30;2.40;;;;;;;23.28;49.83;98053.77;104719;1262;100584;-84
2024/04/13 09:11:43;;;;;;;6.90;2.70;;;;;;;23.36;49.83;98053.20;104724;1262;99274;-84
2024/04/13 09:14:11;;;;;;;5.60;3.00;;;;;;;23.16;49.26;98055.94;104686;1257;99260;-84
2024/04/13 09:16:40;;;;;;;5.20;3.50;;;;;;;22.61;49.13;98053.84;104620;1271;99282;-84
2024/04/13 09:19:06;;;;;;;4.50;2.30;;;;;;;22.28;49.62;98054.43;104666;1268;99274;-84
2024/04/13 09:21:34;;;;;;;4.20;2.90;;;;;;;22.25;49.82;98051.57;104562;1263;99342;-82
2024/04/13 09:24:02;;;;;;;7.30;2.60;;;;;;;22.24;49.74;98056.41;104589;1261;99274;-83
2024/04/13 09:26:28;;;;;;;7.50;3.20;;;;;;;22.45;49.48;98050.35;104601;1261;100517;-84
2024/04/13 09:28:55;;;;;;;3.90;3.10;;;;;;;22.46;49.28;98048.92;104557;1274;100659;-84
2024/04/13 09:31:21;;;;;;;5.10;2.50;;;;;;;22.32;49.12;98050.65;104648;1262;99271;-84
2024/04/13 09:33:50;;;;;;;5.90;3.40;;;;;;;22.37;49.42;98044.13;104573;1263;104903;-83
2024/04/13 09:36:21;;;;;;;8.80;3.20;;;;;;;22.35;48.85;98047.41;104579;1273;99996;-83
2024/04/13 09:38:48;;;;;;;7.90;3.10;;;;;;;22.17;48.85;98043.80;104587;1264;99925;-84
2024/04/13 09:41:14;;;;;;;9.50;2.90;;;;;;;21.76;48.55;98044.92;104584;1272;99290;-83
2024/04/13 09:43:41;;;;;;;7.70;2.80;;;;;;;21.42;49.07;98044.79;104572;1271;99349;-82
2024/04/13 09:46:07;;;;;;;11.80;4.00;;;;;;;21.30;49.10;98040.87;104647;1272;99751;-84
2024/04/13 09:48:33;;;;;;;20.80;4.30;;;;;;;20.92;48.80;98035.30;104504;1271;99257;-84
2024/04/13 09:51:00;;;;;;;7.60;3.10;;;;;;;20.51;49.51;98030.33;104563;1274;99256;-84
2024/04/13 09:53:26;;;;;;;15.10;4.10;;;;;;;20.37;50.19;98024.66;104577;1262;99891;-84
2024/04/13 09:55:53;;;;;;;11.00;3.50;;;;;;;20.48;50.81;98020.64;104645;1263;99789;-84
2024/04/13 09:58:20;;;;;;;6.80;3.30;;;;;;;20.85;51.18;98014.40;104517;1263;99276;-88
2024/04/13 10:00:46;;;;;;;3.70;2.60;;;;;;;20.95;50.38;98014.09;104600;1262;99337;-88
2024/04/13 10:03:17;;;;;;;4.60;2.60;;;;;;;21.09;50.14;98019.34;104597;1271;99388;-86
2024/04/13 10:05:44;;;;;;;9.40;2.80;;;;;;;21.32;50.48;98016.00;104593;1261;103946;-85
2024/04/13 10:08:12;;;;;;;6.20;2.70;;;;;;;21.55;50.35;98013.45;104599;1271;99371;-86
2024/04/13 10:10:50;;;;;;;6.30;3.40;;;;;;;21.70;49.99;98014.30;104571;1257;99729;-84
2024/04/13 10:13:28;;;;;;;7.70;2.90;;;;;;;21.64;49.47;98016.61;104622;1264;99273;-85
2024/04/13 10:15:58;;;;;;;6.60;3.00;;;;;;;21.56;49.39;98014.98;104579;1264;99680;-84
2024/04/13 10:18:25;;;;;;;4.40;2.70;;;;;;;21.57;49.67;98011.77;104567;1262;112583;-83
2024/04/13 10:20:52;;;;;;;5.10;2.90;;;;;;;21.79;49.53;98012.08;104646;1271;99685;-84
2024/04/13 10:23:18;;;;;;;3.10;2.70;;;;;;;22.05;49.29;98003.11;104548;1263;99311;-87
2024/04/13 10:25:56;;;;;;;5.20;2.60;;;;;;;22.30;48.49;98011.10;104606;1259;99362;-87
2024/04/13 10:28:23;;;;;;;5.70;2.50;;;;;;;22.84;48.19;98012.48;104613;1273;103936;-85
2024/04/13 10:30:55;;;;;;;4.70;2.70;;;;;;;23.19;47.70;98014.55;104606;1270;99267;-76
2024/04/13 10:33:25;;;;;;;7.40;3.40;;;;;;;23.11;46.87;98014.63;104765;1270;100229;-76
2024/04/13 10:36:07;;;;;;;7.10;3.10;;;;;;;23.02;47.38;98014.70;104857;1271;99260;-76
2024/04/13 10:38:35;;;;;;;5.90;3.10;;;;;;;23.00;47.11;98016.17;104675;1262;99306;-83
2024/04/13 10:41:03;;;;;;;8.60;3.20;;;;;;;23.16;46.92;98014.23;104611;1262;104980;-83
2024/04/13 10:43:31;;;;;;;12.70;3.80;;;;;;;23.46;46.46;98019.14;104563;1266;101396;-84
2024/04/13 10:46:00;;;;;;;4.00;2.90;;;;;;;23.57;46.20;98014.83;104569;1262;99598;-84
2024/04/13 10:48:31;;;;;;;7.70;3.20;;;;;;;23.74;46.24;98015.34;104626;1270;99404;-84
2024/04/13 10:50:59;;;;;;;4.10;2.80;;;;;;;23.62;46.09;98011.69;104628;1271;99708;-83
2024/04/13 10:53:28;;;;;;;5.60;2.50;;;;;;;23.39;46.00;98007.26;104586;1270;104831;-83
2024/04/13 10:55:57;;;;;;;5.50;2.60;;;;;;;23.16;45.83;98001.40;104660;1270;101501;-84
2024/04/13 10:58:32;;;;;;;6.80;2.80;;;;;;;22.93;45.66;98006.94;104542;1271;100157;-84
2024/04/13 11:01:00;;;;;;;5.40;2.80;;;;;;;22.44;45.75;98009.14;104682;1281;99264;-84
2024/04/13 11:03:27;;;;;;;4.10;2.70;;;;;;;22.08;46.30;98004.21;104559;1271;99682;-85
2024/04/13 11:05:55;;;;;;;3.90;2.70;;;;;;;21.93;46.89;98001.69;104687;1257;104875;-84
2024/04/13 11:08:23;;;;;;;7.30;3.50;;;;;;;21.77;47.13;97996.79;104568;1277;99337;-84
2024/04/13 11:10:53;;;;;;;8.00;3.20;;;;;;;21.64;47.37;97992.84;104499;1274;100014;-84
2024/04/13 11:13:21;;;;;;;3.80;3.40;;;;;;;21.54;47.85;97985.48;104620;1262;100572;-85
2024/04/13 11:15:47;;;;;;;5.70;3.30;;;;;;;21.63;48.13;97982.98;104617;1271;100609;-83
2024/04/13 11:18:14;;;;;;;6.80;3.10;;;;;;;21.63;48.06;97981.78;104605;1271;99320;-83
2024/04/13 11:20:42;;;;;;;5.10;3.10;;;;;;;21.65;48.31;97975.74;104537;1271;99404;-82
2024/04/13 11:23:09;;;;;;;4.40;2.80;;;;;;;22.08;48.34;97967.59;104554;1262;100584;-83